Weather at Serres-Chortero Airfield

Public forecast

Using degrees Celsius for public forecast. Weather courtesy of forecast.io.

Closest aviation weather report (METAR) to Serres-Chortero Airfield

Closest report is Thessaloniki Macedonia International Airport, 46.0 nm (85.1 km) SSW.

2024/06/14 12:50 (retrieved 36 minutes ago)

LGTS 141250Z 33018KT 9999 FEW025 31/18 Q1009 NOSIG

Closest aviation forecast (TAF) to Serres-Chortero Airfield

Closest forecast is Thessaloniki Macedonia International Airport, 46.0 nm (85.1 km) SSW.

2024/06/14 12:12 (retrieved 1 hour ago)

TAF LGTS 141100Z 1412/1512 34015KT 9999 FEW030 PROB30 TEMPO 1412/1418 34015G25KT